If you wish to contribute or participate in the discussions about articles you are invited to join SKYbrary as a registered user

 Actions

Wheeler Army Airfield

From SKYbrary Wiki

PHHI
Airport
ICAO: PHHI – IATA: HHI
Summary
Name Wheeler Army Airfield
Region North America
Territory Hawaii US.gif
Location Wahiawa, Hawaii
Serving Wahiawa
Elevation 255.118 m
837 ft
837 ft255.118 m
Type medium airport
Coordinates 21° 29' 0.60" N, 158° 2' 22.80" W
Runways
Designator Length Width Surface ROPS
6/24 1708 m5,603.675 ft
90 m295.276 ft
ASP /


METAR
Observation PHHI 232256Z AUTO 08010KT 10SM BKN031 BKN045 OVC055 28/21 A2993 RMK AO2 SLP125 T02810206 $
Station Wheeler Air Force Base / Oahu
Date/Time 23 October 2019 22:56:00
Wind direction 80°
Wind speed 10 kts
Lowest cloud amount broken clouds
Temperature 28.1°C
Dew point 20.6°C
Humidity 63%
QNH hPa
Weather condition n/a

Maps

Terrain

Loading map...

Airport Layout

Loading map...


Accidents & Serious Incidents at or in vicinity of PHHI

None on SKYbrary